createdAt,value
2023-04-27T00:00:19.729Z,8.18
2023-04-27T00:03:09.923Z,8.34
2023-04-27T00:05:39.528Z,8.04
2023-04-27T00:08:08.704Z,8.07
2023-04-27T00:10:37.021Z,7.86
2023-04-27T00:13:06.253Z,7.84
2023-04-27T00:15:34.486Z,7.78
2023-04-27T00:18:03.081Z,7.78
2023-04-27T00:20:33.997Z,8.06
2023-04-27T00:23:02.477Z,7.74
2023-04-27T00:25:30.675Z,7.72
2023-04-27T00:27:59.196Z,7.67
2023-04-27T00:30:27.550Z,7.60
2023-04-27T00:32:56.237Z,7.57
2023-04-27T00:35:24.821Z,7.53
2023-04-27T00:37:56.164Z,7.97
2023-04-27T00:40:24.440Z,7.54
2023-04-27T00:42:53.088Z,7.53
2023-04-27T00:45:21.310Z,7.47
2023-04-27T00:47:50.236Z,7.55
2023-04-27T00:50:20.425Z,7.83
2023-04-27T00:52:49.058Z,7.52
2023-04-27T00:55:19.630Z,7.73
2023-04-27T00:57:48.153Z,7.38
2023-04-27T01:00:16.712Z,7.40
2023-04-27T01:02:45.438Z,7.41
2023-04-27T01:05:13.818Z,7.29
2023-04-27T01:07:42.703Z,7.23
2023-04-27T01:10:11.588Z,7.38
2023-04-27T01:12:41.644Z,7.54
2023-04-27T01:15:11.297Z,7.42
2023-04-27T01:17:39.837Z,7.14
2023-04-27T01:20:10.659Z,7.41
2023-04-27T01:22:39.797Z,7.21
2023-04-27T01:25:10.107Z,7.51
2023-04-27T01:27:38.562Z,7.13
2023-04-27T01:30:08.428Z,7.32
2023-04-27T01:32:38.503Z,7.43
2023-04-27T01:35:07.394Z,7.31
2023-04-27T01:37:37.011Z,7.38
2023-04-27T01:40:06.771Z,7.21
2023-04-27T01:42:36.697Z,7.33
2023-04-27T01:45:05.502Z,7.09
2023-04-27T01:47:34.180Z,7.03
2023-04-27T01:50:02.427Z,6.98
2023-04-27T01:52:30.987Z,6.94
2023-04-27T01:54:59.134Z,6.89
2023-04-27T01:57:27.615Z,6.81
2023-04-27T01:59:57.190Z,7.10
2023-04-27T02:02:25.760Z,6.75
2023-04-27T02:04:54.252Z,6.68
2023-04-27T02:07:22.922Z,6.60
2023-04-27T02:09:51.145Z,6.59
2023-04-27T02:12:19.729Z,6.58
2023-04-27T02:14:47.913Z,6.54
2023-04-27T02:17:17.688Z,6.96
2023-04-27T02:19:45.874Z,6.68
2023-04-27T02:22:14.331Z,6.60
2023-04-27T02:24:42.430Z,6.64
2023-04-27T02:27:11.051Z,6.64
2023-04-27T02:29:40.004Z,6.63
2023-04-27T02:32:09.078Z,6.58
2023-04-27T02:34:38.538Z,6.89
2023-04-27T02:37:07.059Z,6.48
2023-04-27T02:39:35.987Z,6.78
2023-04-27T02:42:04.507Z,6.54
2023-04-27T02:44:32.658Z,6.57
2023-04-27T02:47:01.207Z,6.49
2023-04-27T02:49:29.399Z,6.50
2023-04-27T02:51:59.361Z,6.90
2023-04-27T02:54:27.594Z,6.48
2023-04-27T02:56:56.121Z,6.57
2023-04-27T02:59:24.499Z,6.59
2023-04-27T03:01:53.120Z,6.54
2023-04-27T03:04:21.443Z,6.53
2023-04-27T03:06:49.970Z,6.53
2023-04-27T03:09:19.600Z,6.93
2023-04-27T03:11:48.060Z,6.55
2023-04-27T03:14:16.333Z,6.54
2023-04-27T03:16:44.878Z,6.54
2023-04-27T03:19:13.298Z,6.59
2023-04-27T03:21:42.011Z,6.55
2023-04-27T03:24:10.231Z,6.59
2023-04-27T03:26:40.083Z,6.81
2023-04-27T03:29:08.283Z,6.44
2023-04-27T03:31:36.912Z,6.41
2023-04-27T03:34:05.359Z,6.32
2023-04-27T03:36:33.989Z,6.13
2023-04-27T03:39:02.185Z,6.16
2023-04-27T03:41:30.888Z,6.21
2023-04-27T03:44:00.815Z,6.61
2023-04-27T03:46:29.273Z,6.25
2023-04-27T03:48:57.562Z,6.39
2023-04-27T03:51:27.099Z,6.47
2023-04-27T03:53:55.782Z,6.46
2023-04-27T03:56:24.356Z,6.58
2023-04-27T03:58:52.813Z,6.65
2023-04-27T04:01:22.761Z,7.13
2023-04-27T04:03:51.837Z,6.96
2023-04-27T04:06:20.920Z,7.09
2023-04-27T04:08:49.167Z,7.29
2023-04-27T04:11:17.624Z,7.56
2023-04-27T04:13:46.226Z,7.97
2023-04-27T04:16:14.748Z,8.36
2023-04-27T04:18:44.276Z,9.15
2023-04-27T04:21:12.795Z,9.17
2023-04-27T04:23:41.935Z,9.54
2023-04-27T04:26:10.392Z,9.91
2023-04-27T04:28:38.549Z,10.24
2023-04-27T04:31:09.957Z,10.37
2023-04-27T04:33:38.353Z,10.34
2023-04-27T04:36:09.146Z,10.79
2023-04-27T04:38:37.482Z,10.91
2023-04-27T04:41:07.403Z,11.34
2023-04-27T04:43:35.670Z,11.58
2023-04-27T04:46:04.319Z,12.05
2023-04-27T04:48:32.462Z,12.45
2023-04-27T04:51:01.311Z,12.61
2023-04-27T04:53:30.865Z,13.34
2023-04-27T04:55:59.497Z,13.45
2023-04-27T04:58:27.713Z,14.04
2023-04-27T05:00:56.543Z,14.51
2023-04-27T05:03:24.993Z,14.35
2023-04-27T05:05:53.526Z,13.97
2023-04-27T05:08:21.780Z,13.65
2023-04-27T05:10:52.130Z,13.52
2023-04-27T05:13:20.396Z,12.86
2023-04-27T05:15:49.007Z,12.70
2023-04-27T05:18:17.250Z,12.81
2023-04-27T05:20:45.744Z,13.62
2023-04-27T05:23:13.973Z,14.77
2023-04-27T05:25:43.118Z,15.86
2023-04-27T05:28:12.974Z,17.09
2023-04-27T05:30:41.465Z,17.37
2023-04-27T05:33:09.714Z,17.94
2023-04-27T05:35:38.311Z,18.65
2023-04-27T05:38:06.570Z,19.23
2023-04-27T05:40:35.200Z,19.75
2023-04-27T05:43:05.677Z,20.40
2023-04-27T05:45:40.623Z,21.58
2023-04-27T05:48:08.949Z,21.40
2023-04-27T05:50:37.520Z,22.02
2023-04-27T05:53:06.247Z,22.49
2023-04-27T05:55:35.063Z,23.07
2023-04-27T05:58:08.647Z,23.46
2023-04-27T06:00:39.333Z,24.09
2023-04-27T06:03:08.035Z,24.29
2023-04-27T06:05:37.143Z,24.69
2023-04-27T06:08:05.912Z,24.91
2023-04-27T06:10:34.789Z,24.74
2023-04-27T06:13:03.277Z,25.27
2023-04-27T06:15:32.080Z,26.06
2023-04-27T06:18:02.172Z,26.66
2023-04-27T06:20:31.693Z,26.34
2023-04-27T06:23:00.728Z,26.55
2023-04-27T06:25:29.697Z,26.67
2023-04-27T06:27:58.490Z,26.60
2023-04-27T06:30:28.139Z,26.73
2023-04-27T06:32:56.969Z,27.17
2023-04-27T06:35:28.154Z,27.64
2023-04-27T06:37:59.166Z,28.09
2023-04-27T06:40:28.164Z,28.82
2023-04-27T06:42:57.321Z,29.00
2023-04-27T06:45:27.159Z,28.91
2023-04-27T06:47:56.427Z,28.78
2023-04-27T06:50:27.255Z,29.05
2023-04-27T06:52:56.400Z,29.06
2023-04-27T06:55:25.401Z,29.54
2023-04-27T06:57:54.754Z,29.97
2023-04-27T07:00:28.486Z,30.42
2023-04-27T07:02:57.002Z,30.69
2023-04-27T07:05:29.057Z,31.67
2023-04-27T07:07:57.390Z,31.54
2023-04-27T07:10:26.744Z,32.22
2023-04-27T07:12:55.160Z,32.43
2023-04-27T07:15:24.417Z,32.64
2023-04-27T07:17:54.221Z,32.62
2023-04-27T07:20:23.044Z,31.49
2023-04-27T07:22:52.973Z,30.97
2023-04-27T07:25:21.981Z,30.89
2023-04-27T07:27:51.109Z,31.74
2023-04-27T07:30:20.329Z,31.59
2023-04-27T07:32:54.615Z,30.93
2023-04-27T07:35:25.052Z,30.91
2023-04-27T07:37:55.197Z,30.78
2023-04-27T07:40:25.815Z,30.18
2023-04-27T07:42:55.232Z,27.66
2023-04-27T07:45:32.224Z,26.82
2023-04-27T07:48:02.367Z,27.28
2023-04-27T07:50:32.635Z,26.76
2023-04-27T07:53:02.688Z,28.01
2023-04-27T07:55:33.408Z,28.55
2023-04-27T07:58:02.363Z,29.60
2023-04-27T08:00:31.890Z,30.03
2023-04-27T08:03:00.913Z,29.33
2023-04-27T08:05:32.864Z,27.45
2023-04-27T08:08:03.176Z,25.89
2023-04-27T08:10:32.510Z,24.59
2023-04-27T08:13:01.213Z,24.30
2023-04-27T08:15:30.030Z,25.65
2023-04-27T08:17:58.359Z,28.04
2023-04-27T08:20:27.925Z,29.77
2023-04-27T08:22:56.915Z,29.62
2023-04-27T08:25:28.555Z,28.66
2023-04-27T08:27:57.221Z,27.01
2023-04-27T08:30:26.297Z,25.35
2023-04-27T08:32:55.749Z,23.94
2023-04-27T08:35:24.984Z,22.56
2023-04-27T08:37:54.407Z,21.49
2023-04-27T08:40:25.036Z,20.87
2023-04-27T08:42:59.976Z,20.99
2023-04-27T08:45:29.362Z,20.48
2023-04-27T08:47:58.068Z,21.34
2023-04-27T08:50:27.515Z,23.45
2023-04-27T08:52:56.909Z,23.76
2023-04-27T08:55:28.592Z,23.50
2023-04-27T08:58:01.642Z,24.64
2023-04-27T09:00:40.912Z,28.57
2023-04-27T09:03:09.445Z,31.24
2023-04-27T09:05:44.132Z,33.20
2023-04-27T09:08:17.692Z,33.56
2023-04-27T09:10:47.658Z,31.57
2023-04-27T09:13:17.300Z,28.96
2023-04-27T09:15:48.563Z,26.39
2023-04-27T09:18:18.617Z,25.04
2023-04-27T09:20:48.198Z,24.30
2023-04-27T09:23:29.528Z,23.52
2023-04-27T09:25:59.512Z,21.94
2023-04-27T09:28:30.966Z,21.54
2023-04-27T09:31:01.116Z,20.93
2023-04-27T09:33:30.559Z,20.70
2023-04-27T09:36:02.611Z,20.80
2023-04-27T09:38:31.715Z,21.19
2023-04-27T09:41:00.931Z,21.79
2023-04-27T09:43:31.631Z,24.25
2023-04-27T09:46:00.424Z,27.47
2023-04-27T09:48:31.765Z,31.17
2023-04-27T09:51:00.637Z,32.20
2023-04-27T09:53:33.328Z,30.98
2023-04-27T09:56:14.934Z,29.51
2023-04-27T09:59:07.901Z,27.91
2023-04-27T10:01:41.104Z,26.63
2023-04-27T10:04:28.187Z,25.73
2023-04-27T10:07:01.467Z,24.43
2023-04-27T10:09:37.907Z,23.18
2023-04-27T10:12:18.076Z,22.64
2023-04-27T10:14:52.632Z,21.97
2023-04-27T10:17:26.229Z,21.71
2023-04-27T10:19:58.701Z,21.25
2023-04-27T10:22:40.132Z,21.04
2023-04-27T10:25:16.660Z,20.45
2023-04-27T10:27:46.410Z,19.25
2023-04-27T10:30:19.494Z,19.53
2023-04-27T10:32:56.168Z,19.28
2023-04-27T10:35:34.489Z,18.88
2023-04-27T10:38:07.818Z,18.75
2023-04-27T10:40:37.320Z,18.34
2023-04-27T10:43:13.113Z,18.50
2023-04-27T10:45:43.760Z,17.97
2023-04-27T10:48:15.870Z,17.71
2023-04-27T10:50:44.993Z,17.06
2023-04-27T10:53:14.301Z,16.87
2023-04-27T10:55:42.661Z,16.70
2023-04-27T10:58:11.421Z,16.61
2023-04-27T11:00:44.980Z,17.09
2023-04-27T11:03:16.898Z,17.40
2023-04-27T11:05:47.025Z,17.70
2023-04-27T11:08:16.696Z,18.34
2023-04-27T11:10:46.625Z,18.73
2023-04-27T11:13:17.968Z,18.99
2023-04-27T11:15:49.115Z,19.34
2023-04-27T11:18:18.827Z,19.53
2023-04-27T11:20:49.515Z,20.05
2023-04-27T11:23:26.303Z,20.76
2023-04-27T11:25:55.224Z,20.59
2023-04-27T11:28:24.810Z,20.71
2023-04-27T11:31:01.394Z,21.41
2023-04-27T11:33:30.232Z,21.12
2023-04-27T11:35:58.666Z,21.59
2023-04-27T11:38:28.394Z,22.16
2023-04-27T11:41:05.108Z,22.63
2023-04-27T11:43:34.332Z,21.85
2023-04-27T11:46:06.410Z,21.81
2023-04-27T11:48:38.212Z,21.24
2023-04-27T11:51:07.224Z,20.78
2023-04-27T11:53:40.087Z,20.61
2023-04-27T11:56:11.344Z,20.37
2023-04-27T11:58:40.916Z,20.02
2023-04-27T12:01:12.226Z,20.02
2023-04-27T12:03:41.775Z,19.54
2023-04-27T12:06:22.067Z,19.32
2023-04-27T12:08:57.870Z,19.48
2023-04-27T12:11:27.860Z,19.80
2023-04-27T12:13:56.949Z,19.82
2023-04-27T12:16:27.058Z,20.11
2023-04-27T12:18:55.681Z,19.89
2023-04-27T12:21:24.365Z,20.02
2023-04-27T12:23:53.010Z,19.99
2023-04-27T12:26:21.762Z,19.98
2023-04-27T12:28:50.742Z,20.16
2023-04-27T12:31:25.363Z,20.26
2023-04-27T12:33:57.099Z,20.75
2023-04-27T12:36:27.259Z,20.64
2023-04-27T12:39:00.163Z,21.16
2023-04-27T12:41:29.362Z,20.88
2023-04-27T12:43:58.123Z,21.08
2023-04-27T12:46:26.503Z,20.94
2023-04-27T12:48:57.287Z,20.42
2023-04-27T12:51:25.930Z,19.18
2023-04-27T12:53:54.611Z,18.74
2023-04-27T12:56:23.095Z,18.41
2023-04-27T12:58:51.631Z,18.16
2023-04-27T13:01:24.802Z,17.94
2023-04-27T13:03:54.470Z,18.25
2023-04-27T13:06:24.599Z,18.71
2023-04-27T13:08:53.250Z,18.54
2023-04-27T13:11:22.091Z,18.57
2023-04-27T13:13:50.862Z,18.43
2023-04-27T13:16:19.418Z,18.33
2023-04-27T13:18:50.592Z,18.13
2023-04-27T13:21:19.442Z,18.01
2023-04-27T13:23:49.749Z,17.93
2023-04-27T13:26:18.159Z,17.55
2023-04-27T13:28:46.807Z,17.54
2023-04-27T13:31:15.241Z,17.74
2023-04-27T13:33:45.988Z,17.94
2023-04-27T13:36:15.184Z,17.89
2023-04-27T13:38:43.904Z,17.44
2023-04-27T13:41:13.829Z,17.86
2023-04-27T13:43:42.589Z,17.43
2023-04-27T13:46:12.333Z,17.53
2023-04-27T13:48:41.027Z,17.76
2023-04-27T13:51:09.365Z,18.01
2023-04-27T13:53:38.089Z,17.94
2023-04-27T13:56:06.764Z,17.89
2023-04-27T13:58:37.173Z,17.79
2023-04-27T14:01:05.747Z,17.35
2023-04-27T14:03:35.754Z,17.25
2023-04-27T14:06:04.456Z,17.08
2023-04-27T14:08:33.096Z,16.97
2023-04-27T14:11:01.711Z,16.92
2023-04-27T14:13:30.503Z,16.85
2023-04-27T14:16:00.227Z,17.11
2023-04-27T14:18:32.500Z,16.75
2023-04-27T14:21:01.196Z,16.63
2023-04-27T14:23:30.210Z,16.61
2023-04-27T14:25:59.095Z,16.77
2023-04-27T14:28:27.947Z,16.78
2023-04-27T14:30:56.274Z,16.72
2023-04-27T14:33:26.634Z,16.88
2023-04-27T14:35:56.254Z,16.65
2023-04-27T14:38:27.698Z,16.55
2023-04-27T14:40:56.340Z,16.71
2023-04-27T14:43:25.303Z,16.73
2023-04-27T14:45:59.518Z,16.74
2023-04-27T14:48:35.230Z,17.05
2023-04-27T14:51:03.780Z,16.91
2023-04-27T14:53:32.513Z,17.10
2023-04-27T14:56:00.921Z,16.90
2023-04-27T14:58:32.170Z,16.80
2023-04-27T15:01:04.017Z,16.70
2023-04-27T15:03:34.540Z,16.66
2023-04-27T15:06:05.308Z,16.86
2023-04-27T15:08:34.393Z,16.60
2023-04-27T15:11:04.488Z,16.34
2023-04-27T15:13:33.169Z,16.05
2023-04-27T15:16:02.278Z,16.09
2023-04-27T15:18:30.903Z,15.88
2023-04-27T15:21:01.082Z,16.22
2023-04-27T15:23:29.840Z,15.88
2023-04-27T15:25:59.157Z,16.10
2023-04-27T15:28:27.786Z,15.86
2023-04-27T15:30:56.351Z,15.89
2023-04-27T15:33:25.247Z,15.83
2023-04-27T15:35:53.800Z,15.85
2023-04-27T15:38:24.018Z,16.05
2023-04-27T15:40:52.436Z,15.60
2023-04-27T15:43:21.781Z,15.53
2023-04-27T15:45:50.768Z,15.50
2023-04-27T15:48:19.419Z,15.50
2023-04-27T15:50:48.431Z,15.78
2023-04-27T15:53:17.260Z,15.61
2023-04-27T15:55:47.100Z,15.78
2023-04-27T15:58:16.938Z,15.69
2023-04-27T16:00:46.042Z,15.54
2023-04-27T16:03:15.015Z,15.47
2023-04-27T16:05:44.309Z,15.27
2023-04-27T16:08:12.989Z,15.13
2023-04-27T16:10:41.485Z,15.10
2023-04-27T16:13:13.281Z,15.54
2023-04-27T16:15:41.294Z,16.04
2023-04-27T16:18:10.358Z,15.06
2023-04-27T16:20:38.867Z,14.98
2023-04-27T16:23:07.878Z,14.82
2023-04-27T16:25:36.403Z,14.67
2023-04-27T16:28:05.240Z,14.71
2023-04-27T16:30:35.186Z,14.95
2023-04-27T16:33:03.939Z,14.67
2023-04-27T16:35:33.709Z,14.52
2023-04-27T16:38:03.455Z,14.50
2023-04-27T16:40:32.165Z,14.59
2023-04-27T16:43:01.232Z,14.55
2023-04-27T16:45:29.889Z,14.49
2023-04-27T16:48:00.199Z,14.83
2023-04-27T16:50:31.615Z,14.50
2023-04-27T16:53:06.446Z,14.98
2023-04-27T16:55:34.864Z,14.42
2023-04-27T16:58:03.829Z,14.25
2023-04-27T17:00:32.364Z,14.23
2023-04-27T17:03:02.565Z,14.33
2023-04-27T17:05:30.938Z,13.96
2023-04-27T17:07:59.476Z,13.84
2023-04-27T17:10:28.101Z,13.86
2023-04-27T17:12:56.626Z,13.74
2023-04-27T17:15:26.294Z,13.76
2023-04-27T17:17:55.115Z,13.68
2023-04-27T17:20:25.072Z,13.95
2023-04-27T17:22:54.257Z,13.64
2023-04-27T17:25:22.932Z,13.55
2023-04-27T17:27:51.571Z,13.34
2023-04-27T17:30:20.184Z,13.26
2023-04-27T17:32:49.054Z,13.16
2023-04-27T17:35:20.524Z,13.09
2023-04-27T17:37:50.732Z,13.44
2023-04-27T17:40:21.086Z,13.08
2023-04-27T17:42:49.683Z,12.51
2023-04-27T17:45:18.326Z,12.62
2023-04-27T17:47:46.941Z,12.59
2023-04-27T17:50:15.309Z,12.46
2023-04-27T17:52:44.165Z,12.23
2023-04-27T17:55:13.865Z,12.60
2023-04-27T17:57:42.501Z,12.28
2023-04-27T18:00:12.207Z,12.24
2023-04-27T18:02:40.941Z,12.07
2023-04-27T18:05:09.497Z,11.93
2023-04-27T18:07:38.564Z,11.96
2023-04-27T18:10:08.292Z,11.94
2023-04-27T18:12:38.327Z,11.95
2023-04-27T18:15:09.785Z,11.71
2023-04-27T18:17:38.626Z,11.49
2023-04-27T18:20:10.514Z,11.68
2023-04-27T18:22:40.356Z,11.43
2023-04-27T18:25:10.021Z,11.52
2023-04-27T18:27:39.968Z,11.59
2023-04-27T18:30:09.438Z,11.36
2023-04-27T18:32:38.285Z,11.10
2023-04-27T18:35:07.428Z,11.10
2023-04-27T18:37:36.176Z,10.92
2023-04-27T18:40:06.141Z,10.90
2023-04-27T18:42:35.618Z,10.87
2023-04-27T18:45:06.304Z,11.20
2023-04-27T18:47:34.862Z,10.79
2023-04-27T18:50:03.413Z,10.69
2023-04-27T18:52:32.174Z,10.70
2023-04-27T18:55:00.450Z,10.64
2023-04-27T18:57:29.110Z,10.58
2023-04-27T18:59:57.368Z,10.41
2023-04-27T19:02:27.614Z,10.77
2023-04-27T19:05:10.965Z,10.38
2023-04-27T19:07:41.318Z,10.21
2023-04-27T19:10:10.967Z,10.40
2023-04-27T19:12:39.663Z,10.15
2023-04-27T19:15:08.340Z,10.11
2023-04-27T19:17:38.824Z,10.22
2023-04-27T19:20:08.362Z,9.97
2023-04-27T19:22:37.143Z,9.82
2023-04-27T19:25:06.139Z,9.83
2023-04-27T19:27:34.714Z,9.78
2023-04-27T19:30:04.336Z,9.72
2023-04-27T19:32:34.484Z,9.99
2023-04-27T19:35:04.672Z,9.97
2023-04-27T19:37:33.262Z,9.57
2023-04-27T19:40:01.878Z,9.50
2023-04-27T19:42:30.763Z,9.41
2023-04-27T19:44:59.007Z,9.40
2023-04-27T19:47:27.589Z,9.40
2023-04-27T19:49:58.502Z,9.38
2023-04-27T19:52:28.568Z,9.77
2023-04-27T19:54:57.816Z,9.40
2023-04-27T19:57:26.878Z,9.43
2023-04-27T19:59:55.329Z,9.34
2023-04-27T20:02:24.101Z,9.39
2023-04-27T20:04:52.937Z,9.31
2023-04-27T20:07:21.772Z,9.32
2023-04-27T20:09:51.536Z,9.55
2023-04-27T20:12:43.609Z,9.24
2023-04-27T20:15:09.742Z,9.45
2023-04-27T20:17:38.322Z,9.23
2023-04-27T20:20:10.581Z,9.33
2023-04-27T20:22:39.477Z,9.27
2023-04-27T20:25:10.047Z,9.60
2023-04-27T20:27:38.763Z,9.37
2023-04-27T20:30:08.341Z,9.56
2023-04-27T20:32:37.215Z,9.37
2023-04-27T20:35:05.845Z,9.39
2023-04-27T20:37:34.307Z,9.36
2023-04-27T20:40:02.525Z,9.33
2023-04-27T20:42:32.694Z,9.70
2023-04-27T20:45:01.132Z,9.35
2023-04-27T20:47:29.723Z,9.28
2023-04-27T20:49:57.957Z,9.29
2023-04-27T20:52:29.405Z,9.36
2023-04-27T20:54:59.347Z,9.36
2023-04-27T20:57:27.880Z,9.36
2023-04-27T20:59:57.646Z,9.67
2023-04-27T21:02:26.301Z,9.25
2023-04-27T21:04:54.761Z,9.35
2023-04-27T21:07:26.053Z,9.39
2023-04-27T21:09:54.435Z,9.41
2023-04-27T21:12:22.946Z,9.44
2023-04-27T21:14:51.523Z,9.40
2023-04-27T21:17:21.753Z,9.67
2023-04-27T21:19:49.983Z,9.28
2023-04-27T21:22:18.573Z,9.37
2023-04-27T21:24:47.716Z,9.58
2023-04-27T21:27:16.305Z,9.19
2023-04-27T21:29:44.601Z,9.19
2023-04-27T21:32:13.036Z,9.15
2023-04-27T21:34:42.697Z,9.37
2023-04-27T21:37:11.502Z,8.89
2023-04-27T21:39:39.836Z,8.77
2023-04-27T21:42:08.626Z,8.76
2023-04-27T21:44:36.804Z,8.60
2023-04-27T21:47:05.446Z,8.73
2023-04-27T21:49:33.862Z,8.73
2023-04-27T21:52:03.723Z,8.98
2023-04-27T21:54:32.169Z,8.48
2023-04-27T21:57:00.909Z,8.28
2023-04-27T21:59:29.442Z,8.27
2023-04-27T22:01:59.405Z,8.08
2023-04-27T22:04:29.082Z,8.08
2023-04-27T22:06:57.778Z,8.11
2023-04-27T22:09:27.419Z,8.56
2023-04-27T22:11:55.990Z,8.31
2023-04-27T22:14:24.212Z,8.39
2023-04-27T22:16:52.762Z,8.54
2023-04-27T22:19:20.992Z,8.60
2023-04-27T22:21:49.530Z,8.68
2023-04-27T22:24:18.262Z,8.84
2023-04-27T22:26:48.463Z,9.15
2023-04-27T22:29:16.859Z,8.85
2023-04-27T22:31:46.714Z,9.05
2023-04-27T22:34:15.322Z,8.69
2023-04-27T22:36:43.989Z,8.76
2023-04-27T22:39:12.276Z,8.78
2023-04-27T22:41:41.255Z,8.68
2023-04-27T22:44:11.081Z,8.96
2023-04-27T22:46:39.607Z,8.49
2023-04-27T22:49:08.159Z,8.45
2023-04-27T22:51:37.490Z,8.39
2023-04-27T22:54:06.078Z,8.40
2023-04-27T22:56:34.598Z,8.51
2023-04-27T22:59:02.837Z,8.68
2023-04-27T23:01:32.917Z,9.16
2023-04-27T23:04:01.296Z,8.91
2023-04-27T23:06:30.472Z,9.05
2023-04-27T23:08:59.228Z,9.13
2023-04-27T23:11:28.642Z,9.39
2023-04-27T23:13:57.586Z,9.06
2023-04-27T23:16:26.830Z,9.02
2023-04-27T23:18:56.333Z,9.21
2023-04-27T23:21:26.470Z,9.09
2023-04-27T23:23:54.748Z,8.72
2023-04-27T23:26:23.222Z,8.68
2023-04-27T23:28:51.377Z,8.58
2023-04-27T23:31:19.992Z,8.54
2023-04-27T23:33:48.252Z,8.55
2023-04-27T23:36:18.189Z,8.83
2023-04-27T23:38:46.396Z,8.57
2023-04-27T23:41:14.911Z,8.55
2023-04-27T23:43:43.208Z,8.56
2023-04-27T23:46:11.717Z,8.54
2023-04-27T23:48:40.019Z,8.51
2023-04-27T23:51:08.527Z,8.51
2023-04-27T23:53:38.138Z,8.79
2023-04-27T23:56:07.341Z,8.53
2023-04-27T23:58:35.561Z,8.38
